createdAt,value
2022-09-11T00:01:36.350Z,1.00
2022-09-11T00:04:04.496Z,1.05
2022-09-11T00:06:31.768Z,0.85
2022-09-11T00:09:01.686Z,0.90
2022-09-11T00:11:34.110Z,1.00
2022-09-11T00:14:01.859Z,1.58
2022-09-11T00:16:34.045Z,1.30
2022-09-11T00:19:05.204Z,0.90
2022-09-11T00:21:32.805Z,1.10
2022-09-11T00:24:00.319Z,0.90
2022-09-11T00:26:28.020Z,0.70
2022-09-11T00:28:56.151Z,1.20
2022-09-11T00:31:26.619Z,1.58
2022-09-11T00:33:55.161Z,0.90
2022-09-11T00:36:26.004Z,0.83
2022-09-11T00:38:54.146Z,0.65
2022-09-11T00:41:25.754Z,0.88
2022-09-11T00:44:28.399Z,0.80
2022-09-11T00:47:01.684Z,1.00
2022-09-11T00:49:44.623Z,0.98
2022-09-11T00:52:20.664Z,1.52
2022-09-11T00:54:57.021Z,0.93
2022-09-11T00:57:28.985Z,0.70
2022-09-11T00:59:59.539Z,1.20
2022-09-11T01:02:30.134Z,1.13
2022-09-11T01:04:58.494Z,0.70
2022-09-11T01:07:29.152Z,0.75
2022-09-11T01:09:57.326Z,0.60
2022-09-11T01:12:24.568Z,1.10
2022-09-11T01:14:55.417Z,1.10
2022-09-11T01:17:46.744Z,1.00
2022-09-11T01:20:26.735Z,1.10
2022-09-11T01:23:05.747Z,0.80
2022-09-11T01:26:11.927Z,0.95
2022-09-11T01:28:52.460Z,1.45
2022-09-11T01:31:25.757Z,1.10
2022-09-11T01:34:27.115Z,1.20
2022-09-11T01:37:01.159Z,1.05
2022-09-11T01:39:34.546Z,0.80
2022-09-11T01:42:07.816Z,0.80
2022-09-11T01:44:43.337Z,1.00
2022-09-11T01:47:12.001Z,0.82
2022-09-11T01:49:58.192Z,1.25
2022-09-11T01:52:34.041Z,1.17
2022-09-11T01:55:08.459Z,0.93
2022-09-11T01:58:00.514Z,1.55
2022-09-11T02:00:28.253Z,1.52
2022-09-11T02:03:06.163Z,0.93
2022-09-11T02:05:41.079Z,1.20
2022-09-11T02:08:13.716Z,1.45
2022-09-11T02:10:47.459Z,1.23
2022-09-11T02:13:40.353Z,1.60
2022-09-11T02:16:18.421Z,1.02
2022-09-11T02:18:54.619Z,1.15
2022-09-11T02:21:21.973Z,1.00
2022-09-11T02:23:49.694Z,1.30
2022-09-11T02:26:19.983Z,0.68
2022-09-11T02:28:47.447Z,0.90
2022-09-11T02:31:14.877Z,0.80
2022-09-11T02:33:43.332Z,1.00
2022-09-11T02:36:26.440Z,0.80
2022-09-11T02:39:32.731Z,0.75
2022-09-11T02:42:03.058Z,1.00
2022-09-11T02:44:49.795Z,0.87
2022-09-11T02:47:52.500Z,0.70
2022-09-11T02:50:38.289Z,0.73
2022-09-11T02:53:27.295Z,0.90
2022-09-11T02:56:31.752Z,0.90
2022-09-11T02:59:08.603Z,1.35
2022-09-11T03:01:53.722Z,1.08
2022-09-11T03:04:24.479Z,1.40
2022-09-11T03:06:53.453Z,0.87
2022-09-11T03:09:21.215Z,1.50
2022-09-11T03:11:49.164Z,1.10
2022-09-11T03:14:17.294Z,0.70
2022-09-11T03:16:44.587Z,0.77
2022-09-11T03:19:12.277Z,0.90
2022-09-11T03:21:39.760Z,0.60
2022-09-11T03:24:08.669Z,0.80
2022-09-11T03:26:37.450Z,1.30
2022-09-11T03:29:05.006Z,1.20
2022-09-11T03:31:34.423Z,1.10
2022-09-11T03:34:03.601Z,0.80
2022-09-11T03:36:30.928Z,1.00
2022-09-11T03:38:58.693Z,0.65
2022-09-11T03:41:26.282Z,0.60
2022-09-11T03:43:53.627Z,0.52
2022-09-11T03:46:20.935Z,0.60
2022-09-11T03:48:48.238Z,0.90
2022-09-11T03:51:15.638Z,0.50
2022-09-11T03:53:44.343Z,0.95
2022-09-11T03:56:12.594Z,0.85
2022-09-11T03:58:40.470Z,0.70
2022-09-11T04:01:12.905Z,0.90
2022-09-11T04:03:41.078Z,0.70
2022-09-11T04:06:10.165Z,0.88
2022-09-11T04:08:41.287Z,1.00
2022-09-11T04:11:11.701Z,0.82
2022-09-11T04:13:41.251Z,1.10
2022-09-11T04:16:12.798Z,1.27
2022-09-11T04:18:41.750Z,0.93
2022-09-11T04:21:11.990Z,1.00
2022-09-11T04:23:39.987Z,1.10
2022-09-11T04:26:19.570Z,1.85
2022-09-11T04:28:47.325Z,1.30
2022-09-11T04:31:16.775Z,1.30
2022-09-11T04:33:45.122Z,0.80
2022-09-11T04:36:18.393Z,1.08
2022-09-11T04:38:47.010Z,1.48
2022-09-11T04:41:16.255Z,0.85
2022-09-11T04:43:43.770Z,1.30
2022-09-11T04:46:17.161Z,1.13
2022-09-11T04:48:50.167Z,1.25
2022-09-11T04:51:32.310Z,1.20
2022-09-11T04:54:00.566Z,1.17
2022-09-11T04:56:30.333Z,1.10
2022-09-11T04:59:00.188Z,1.85
2022-09-11T05:01:30.100Z,1.50
2022-09-11T05:03:57.708Z,1.70
2022-09-11T05:06:25.025Z,1.45
2022-09-11T05:08:52.334Z,1.63
2022-09-11T05:11:23.360Z,0.93
2022-09-11T05:13:50.665Z,1.90
2022-09-11T05:16:18.119Z,1.15
2022-09-11T05:18:52.145Z,1.08
2022-09-11T05:21:22.477Z,1.40
2022-09-11T05:23:52.121Z,1.00
2022-09-11T05:26:22.102Z,1.40
2022-09-11T05:28:58.083Z,0.85
2022-09-11T05:31:25.702Z,0.90
2022-09-11T05:33:56.015Z,1.40
2022-09-11T05:36:24.357Z,1.48
2022-09-11T05:38:52.870Z,1.17
2022-09-11T05:41:20.774Z,1.55
2022-09-11T05:43:48.185Z,1.53
2022-09-11T05:46:17.231Z,1.73
2022-09-11T05:48:45.147Z,1.13
2022-09-11T05:51:15.101Z,1.00
2022-09-11T05:53:43.204Z,1.20
2022-09-11T05:56:15.588Z,1.38
2022-09-11T05:58:47.909Z,1.00
2022-09-11T06:01:18.813Z,0.85
2022-09-11T06:03:49.361Z,0.80
2022-09-11T06:06:19.594Z,0.97
2022-09-11T06:08:47.898Z,1.57
2022-09-11T06:11:17.267Z,0.80
2022-09-11T06:13:46.645Z,1.20
2022-09-11T06:16:19.371Z,1.05
2022-09-11T06:18:50.669Z,1.00
2022-09-11T06:21:20.359Z,0.80
2022-09-11T06:23:49.575Z,1.17
2022-09-11T06:26:19.596Z,1.30
2022-09-11T06:28:47.770Z,1.15
2022-09-11T06:31:17.421Z,0.85
2022-09-11T06:33:45.559Z,1.20
2022-09-11T06:36:14.107Z,0.97
2022-09-11T06:38:41.803Z,1.25
2022-09-11T06:41:13.990Z,1.27
2022-09-11T06:43:42.752Z,1.50
2022-09-11T06:46:19.155Z,0.88
2022-09-11T06:48:48.555Z,1.17
2022-09-11T06:51:18.681Z,1.50
2022-09-11T06:53:47.487Z,1.10
2022-09-11T06:56:17.623Z,1.35
2022-09-11T06:58:46.033Z,1.38
2022-09-11T07:01:15.965Z,1.55
2022-09-11T07:03:47.795Z,1.15
2022-09-11T07:06:17.371Z,1.10
2022-09-11T07:08:45.002Z,1.33
2022-09-11T07:11:12.975Z,0.93
2022-09-11T07:13:40.929Z,1.00
2022-09-11T07:16:10.218Z,1.10
2022-09-11T07:18:40.116Z,2.83
2022-09-11T07:21:11.357Z,1.75
2022-09-11T07:23:39.741Z,1.92
2022-09-11T07:26:12.754Z,2.57
2022-09-11T07:28:41.125Z,2.75
2022-09-11T07:31:10.619Z,2.20
2022-09-11T07:33:39.812Z,2.30
2022-09-11T07:36:12.160Z,1.25
2022-09-11T07:38:44.252Z,1.35
2022-09-11T07:41:11.795Z,1.98
2022-09-11T07:43:41.938Z,0.98
2022-09-11T07:46:10.684Z,1.20
2022-09-11T07:48:39.638Z,1.33
2022-09-11T07:51:08.745Z,1.30
2022-09-11T07:53:38.017Z,1.90
2022-09-11T07:56:07.631Z,1.27
2022-09-11T07:58:40.559Z,1.90
2022-09-11T08:01:10.682Z,1.67
2022-09-11T08:03:38.816Z,1.40
2022-09-11T08:06:13.575Z,1.23
2022-09-11T08:08:42.291Z,1.43
2022-09-11T08:11:12.488Z,1.70
2022-09-11T08:13:40.286Z,1.50
2022-09-11T08:16:08.313Z,1.38
2022-09-11T08:18:37.257Z,1.40
2022-09-11T08:21:12.184Z,1.08
2022-09-11T08:23:42.186Z,1.40
2022-09-11T08:26:12.490Z,0.90
2022-09-11T08:28:43.201Z,0.77
2022-09-11T08:31:11.714Z,1.20
2022-09-11T08:33:39.624Z,1.63
2022-09-11T08:36:09.859Z,1.10
2022-09-11T08:38:38.499Z,0.90
2022-09-11T08:41:27.942Z,1.08
2022-09-11T08:44:03.427Z,1.20
2022-09-11T08:46:36.279Z,0.90
2022-09-11T08:49:24.877Z,0.80
2022-09-11T08:51:56.221Z,1.08
2022-09-11T08:54:32.572Z,1.05
2022-09-11T08:57:38.207Z,0.95
2022-09-11T09:00:25.088Z,1.13
2022-09-11T09:03:04.188Z,0.90
2022-09-11T09:05:56.887Z,1.02
2022-09-11T09:08:37.278Z,1.57
2022-09-11T09:11:36.254Z,1.13
2022-09-11T09:14:21.634Z,1.30
2022-09-11T09:17:06.819Z,1.60
2022-09-11T09:19:42.729Z,2.13
2022-09-11T09:22:30.530Z,0.90
2022-09-11T09:25:04.787Z,1.40
2022-09-11T09:27:54.075Z,1.60
2022-09-11T09:30:27.606Z,2.50
2022-09-11T09:33:22.708Z,2.53
2022-09-11T09:35:50.373Z,2.43
2022-09-11T09:38:27.282Z,2.92
2022-09-11T09:41:22.085Z,3.50
2022-09-11T09:44:11.197Z,3.22
2022-09-11T09:46:45.505Z,2.17
2022-09-11T09:49:31.156Z,2.00
2022-09-11T09:52:04.575Z,2.35
2022-09-11T09:54:36.533Z,2.05
2022-09-11T09:57:10.471Z,1.77
2022-09-11T09:59:45.954Z,1.63
2022-09-11T10:02:13.642Z,1.70
2022-09-11T10:04:41.111Z,1.73
2022-09-11T10:07:20.875Z,1.70
2022-09-11T10:09:53.737Z,2.80
2022-09-11T10:12:26.817Z,2.22
2022-09-11T10:14:58.409Z,1.73
2022-09-11T10:17:29.751Z,1.92
2022-09-11T10:20:23.888Z,2.00
2022-09-11T10:22:51.972Z,2.30
2022-09-11T10:25:26.966Z,1.80
2022-09-11T10:28:11.468Z,2.50
2022-09-11T10:30:41.549Z,5.28
2022-09-11T10:33:39.397Z,4.50
2022-09-11T10:36:09.985Z,6.40
2022-09-11T10:38:47.599Z,6.90
2022-09-11T10:41:19.617Z,5.20
2022-09-11T10:44:01.736Z,4.10
2022-09-11T10:46:38.576Z,3.60
2022-09-11T10:49:05.907Z,3.00
2022-09-11T10:51:36.177Z,7.70
2022-09-11T10:54:21.618Z,5.95
2022-09-11T10:57:27.157Z,2.75
2022-09-11T10:59:55.602Z,2.08
2022-09-11T11:02:33.214Z,1.95
2022-09-11T11:05:13.906Z,2.07
2022-09-11T11:08:05.624Z,1.17
2022-09-11T11:11:14.121Z,2.60
2022-09-11T11:13:47.239Z,3.10
2022-09-11T11:16:48.392Z,2.40
2022-09-11T11:19:34.916Z,1.65
2022-09-11T11:22:31.269Z,1.80
2022-09-11T11:25:27.419Z,1.70
2022-09-11T11:28:08.890Z,1.30
2022-09-11T11:30:51.110Z,1.33
2022-09-11T11:33:24.341Z,1.00
2022-09-11T11:36:15.549Z,1.27
2022-09-11T11:38:53.091Z,1.20
2022-09-11T11:41:26.152Z,0.82
2022-09-11T11:43:55.647Z,1.20
2022-09-11T11:46:35.495Z,1.10
2022-09-11T11:49:25.842Z,1.00
2022-09-11T11:52:30.275Z,1.10
2022-09-11T11:55:16.558Z,1.02
2022-09-11T11:57:53.875Z,1.10
2022-09-11T12:00:22.089Z,0.90
2022-09-11T12:03:00.851Z,1.02
2022-09-11T12:05:32.960Z,1.10
2022-09-11T12:08:01.279Z,1.10
2022-09-11T12:10:40.460Z,1.00
2022-09-11T12:13:16.726Z,0.90
2022-09-11T12:16:15.076Z,1.05
2022-09-11T12:19:07.713Z,0.93
2022-09-11T12:21:38.016Z,1.02
2022-09-11T12:24:11.347Z,1.10
2022-09-11T12:26:38.708Z,0.90
2022-09-11T12:29:12.377Z,0.98
2022-09-11T12:32:05.350Z,1.05
2022-09-11T12:34:38.859Z,0.90
2022-09-11T12:37:35.498Z,1.00
2022-09-11T12:40:17.092Z,0.98
2022-09-11T12:42:57.306Z,1.10
2022-09-11T12:45:32.545Z,1.00
2022-09-11T12:48:06.137Z,1.10
2022-09-11T12:50:34.074Z,1.00
2022-09-11T12:53:03.426Z,0.90
2022-09-11T12:55:39.644Z,0.82
2022-09-11T12:58:38.341Z,1.10
2022-09-11T13:01:21.497Z,0.95
2022-09-11T13:03:53.475Z,0.90
2022-09-11T13:06:22.335Z,1.08
2022-09-11T13:08:59.844Z,0.90
2022-09-11T13:11:40.454Z,1.00
2022-09-11T13:14:52.066Z,1.10
2022-09-11T13:17:32.401Z,0.90
2022-09-11T13:20:07.502Z,0.90
2022-09-11T13:22:35.499Z,0.80
2022-09-11T13:25:20.431Z,0.70
2022-09-11T13:28:01.453Z,0.95
2022-09-11T13:30:29.073Z,1.20
2022-09-11T13:33:07.974Z,0.70
2022-09-11T13:35:40.374Z,1.00
2022-09-11T13:38:48.916Z,0.70
2022-09-11T13:41:20.335Z,0.60
2022-09-11T13:43:58.107Z,0.70
2022-09-11T13:46:31.675Z,0.80
2022-09-11T13:49:22.811Z,0.80
2022-09-11T13:51:50.167Z,0.97
2022-09-11T13:54:44.451Z,0.77
2022-09-11T13:57:23.247Z,0.65
2022-09-11T13:59:56.969Z,0.80
2022-09-11T14:02:27.319Z,0.70
2022-09-11T14:05:09.339Z,0.70
2022-09-11T14:08:04.751Z,0.70
2022-09-11T14:10:47.242Z,0.90
2022-09-11T14:13:42.521Z,0.70
2022-09-11T14:16:35.572Z,0.73
2022-09-11T14:19:14.049Z,0.70
2022-09-11T14:21:45.451Z,0.85
2022-09-11T14:24:32.783Z,0.80
2022-09-11T14:27:24.710Z,1.00
2022-09-11T14:29:53.611Z,0.80
2022-09-11T14:32:37.037Z,0.80
2022-09-11T14:35:07.337Z,0.70
2022-09-11T14:37:40.356Z,0.70
2022-09-11T14:40:15.602Z,0.82
2022-09-11T14:42:43.718Z,0.77
2022-09-11T14:45:24.043Z,0.93
2022-09-11T14:47:51.937Z,0.80
2022-09-11T14:50:19.383Z,0.70
2022-09-11T14:52:46.844Z,0.80
2022-09-11T14:55:19.274Z,0.80
2022-09-11T14:57:47.472Z,0.80
2022-09-11T15:00:19.012Z,0.70
2022-09-11T15:02:47.858Z,0.80
2022-09-11T15:05:21.738Z,0.70
2022-09-11T15:07:49.214Z,0.90
2022-09-11T15:10:16.594Z,1.00
2022-09-11T15:12:44.726Z,0.90
2022-09-11T15:15:12.067Z,0.80
2022-09-11T15:17:39.449Z,0.90
2022-09-11T15:20:09.298Z,0.90
2022-09-11T15:22:38.385Z,0.85
2022-09-11T15:25:06.559Z,0.85
2022-09-11T15:27:34.418Z,0.75
2022-09-11T15:30:01.850Z,1.00
2022-09-11T15:32:29.306Z,0.80
2022-09-11T15:34:56.651Z,0.90
2022-09-11T15:37:24.361Z,0.80
2022-09-11T15:39:51.701Z,1.00
2022-09-11T15:42:19.102Z,1.00
2022-09-11T15:44:46.388Z,0.75
2022-09-11T15:47:13.928Z,0.80
2022-09-11T15:49:44.403Z,0.90
2022-09-11T15:52:11.785Z,1.00
2022-09-11T15:54:39.178Z,0.80
2022-09-11T15:57:07.482Z,0.90
2022-09-11T15:59:34.867Z,0.90
2022-09-11T16:02:02.255Z,1.00
2022-09-11T16:04:32.274Z,1.00
2022-09-11T16:07:00.022Z,0.90
2022-09-11T16:09:30.109Z,1.02
2022-09-11T16:12:00.258Z,0.80
2022-09-11T16:14:38.437Z,0.80
2022-09-11T16:17:07.130Z,0.90
2022-09-11T16:19:35.415Z,0.90
2022-09-11T16:22:05.377Z,0.90
2022-09-11T16:24:37.844Z,0.70
2022-09-11T16:27:07.927Z,0.73
2022-09-11T16:30:08.952Z,0.77
2022-09-11T16:32:29.025Z,0.90
2022-09-11T16:34:57.909Z,0.70
2022-09-11T16:37:26.084Z,0.93
2022-09-11T16:39:53.782Z,0.98
2022-09-11T16:42:21.803Z,0.90
2022-09-11T16:44:50.394Z,0.90
2022-09-11T16:47:18.292Z,0.87
2022-09-11T16:52:34.653Z,0.80
2022-09-11T16:55:02.434Z,0.90
2022-09-11T16:57:30.425Z,0.70
2022-09-11T16:59:57.842Z,0.90
2022-09-11T17:02:25.973Z,0.70
2022-09-11T17:04:53.270Z,0.90
2022-09-11T17:07:20.920Z,0.90
2022-09-11T17:09:48.512Z,0.90
2022-09-11T17:12:17.977Z,0.90
2022-09-11T17:14:45.436Z,0.82
2022-09-11T17:17:12.772Z,0.70
2022-09-11T17:19:40.193Z,1.07
2022-09-11T17:22:08.726Z,1.00
2022-09-11T17:24:36.465Z,0.75
2022-09-11T17:27:03.904Z,0.85
2022-09-11T17:29:31.204Z,1.00
2022-09-11T17:32:23.850Z,1.10
2022-09-11T17:34:47.495Z,3.53
2022-09-11T17:37:15.350Z,2.75
2022-09-11T17:39:42.903Z,3.03
2022-09-11T17:42:13.126Z,2.35
2022-09-11T17:44:43.760Z,2.90
2022-09-11T17:47:11.152Z,3.13
2022-09-11T17:49:38.511Z,4.35
2022-09-11T17:52:09.413Z,3.42
2022-09-11T17:54:37.106Z,2.78
2022-09-11T17:57:04.458Z,3.78
2022-09-11T17:59:31.862Z,3.00
2022-09-11T18:02:00.081Z,2.28
2022-09-11T18:04:27.661Z,3.92
2022-09-11T18:06:55.167Z,3.42
2022-09-11T18:09:22.733Z,2.65
2022-09-11T18:11:53.902Z,2.92
2022-09-11T18:14:21.702Z,3.33
2022-09-11T18:16:49.358Z,4.05
2022-09-11T18:19:20.287Z,2.15
2022-09-11T18:21:50.311Z,2.07
2022-09-11T18:24:20.825Z,2.77
2022-09-11T18:26:50.949Z,2.60
2022-09-11T18:29:20.619Z,2.33
2022-09-11T18:31:54.230Z,2.45
2022-09-11T18:34:24.534Z,2.47
2022-09-11T18:36:52.785Z,2.08
2022-09-11T18:39:21.303Z,2.65
2022-09-11T18:41:49.938Z,1.92
2022-09-11T18:44:20.458Z,3.60
2022-09-11T18:46:48.901Z,2.58
2022-09-11T18:49:16.958Z,2.88
2022-09-11T18:51:44.948Z,2.53
2022-09-11T18:54:16.447Z,1.65
2022-09-11T18:56:44.779Z,2.28
2022-09-11T18:59:13.900Z,1.67
2022-09-11T19:01:42.504Z,1.77
2022-09-11T19:04:12.747Z,2.50
2022-09-11T19:06:40.474Z,1.67
2022-09-11T19:09:13.383Z,1.65
2022-09-11T19:11:41.521Z,1.30
2022-09-11T19:14:11.373Z,1.25
2022-09-11T19:16:39.618Z,1.33
2022-09-11T19:19:08.241Z,1.58
2022-09-11T19:21:38.083Z,1.55
2022-09-11T19:24:06.955Z,1.40
2022-09-11T19:26:40.162Z,2.47
2022-09-11T19:29:13.438Z,1.63
2022-09-11T19:31:41.085Z,1.40
2022-09-11T19:34:12.177Z,1.30
2022-09-11T19:36:41.358Z,1.15
2022-09-11T19:39:10.197Z,1.35
2022-09-11T19:41:38.981Z,1.17
2022-09-11T19:44:08.467Z,1.65
2022-09-11T19:46:38.137Z,2.17
2022-09-11T19:49:06.952Z,1.80
2022-09-11T19:51:37.211Z,1.10
2022-09-11T19:54:05.660Z,2.43
2022-09-11T19:56:36.259Z,2.13
2022-09-11T19:59:08.227Z,1.58
2022-09-11T20:01:36.054Z,1.58
2022-09-11T20:04:04.621Z,1.52
2022-09-11T20:06:34.471Z,1.80
2022-09-11T20:09:29.335Z,1.27
2022-09-11T20:11:49.993Z,1.73
2022-09-11T20:14:17.444Z,1.17
2022-09-11T20:16:44.931Z,1.73
2022-09-11T20:19:12.643Z,1.67
2022-09-11T20:21:40.822Z,2.03
2022-09-11T20:24:08.300Z,1.85
2022-09-11T20:26:36.343Z,1.83
2022-09-11T20:29:12.162Z,2.03
2022-09-11T20:31:47.034Z,1.70
2022-09-11T20:34:17.408Z,2.35
2022-09-11T20:36:45.495Z,1.60
2022-09-11T20:39:14.165Z,1.85
2022-09-11T20:41:42.433Z,1.20
2022-09-11T20:44:10.041Z,1.35
2022-09-11T20:46:37.481Z,1.10
2022-09-11T20:49:05.575Z,1.20
2022-09-11T20:51:34.269Z,1.17
2022-09-11T20:54:01.729Z,1.00
2022-09-11T20:56:29.114Z,1.30
2022-09-11T20:58:57.502Z,0.98
2022-09-11T21:01:26.394Z,1.20
2022-09-11T21:03:56.518Z,1.00
2022-09-11T21:06:27.414Z,1.00
2022-09-11T21:08:57.132Z,1.10
2022-09-11T21:11:25.956Z,1.00
2022-09-11T21:13:53.624Z,1.00
2022-09-11T21:16:21.647Z,0.95
2022-09-11T21:18:51.637Z,1.05
2022-09-11T21:21:20.686Z,1.45
2022-09-11T21:23:48.328Z,1.58
2022-09-11T21:26:17.670Z,1.58
2022-09-11T21:28:45.217Z,1.27
2022-09-11T21:31:13.747Z,1.10
2022-09-11T21:33:41.706Z,1.02
2022-09-11T21:36:09.463Z,0.90
2022-09-11T21:38:37.392Z,1.10
2022-09-11T21:41:08.907Z,1.27
2022-09-11T21:43:36.996Z,1.80
2022-09-11T21:46:06.917Z,1.73
2022-09-11T21:48:39.591Z,1.30
2022-09-11T21:51:15.926Z,2.22
2022-09-11T21:53:45.641Z,1.90
2022-09-11T21:56:21.918Z,2.20
2022-09-11T21:58:51.155Z,1.10
2022-09-11T22:01:20.340Z,6.97
2022-09-11T22:03:47.976Z,8.20
